sensor_id;sensor_type;location;lat;lon;timestamp;pressure;altitude;pressure_sealevel;temperature;humidity
68376;BME280;55318;52.068;5.188;2023-08-20T00:00:09;102098.0;;;20.25;92.04
68376;BME280;55318;52.068;5.188;2023-08-20T00:01:47;102099.0;;;20.07;92.47
68376;BME280;55318;52.068;5.188;2023-08-20T00:03:30;102098.0;;;19.91;92.97
68376;BME280;55318;52.068;5.188;2023-08-20T00:06:45;102100.0;;;19.84;93.44
68376;BME280;55318;52.068;5.188;2023-08-20T00:08:22;102106.0;;;19.95;93.16
68376;BME280;55318;52.068;5.188;2023-08-20T00:09:59;102107.0;;;20.03;92.77
68376;BME280;55318;52.068;5.188;2023-08-20T00:13:12;102110.0;;;20.07;92.56
68376;BME280;55318;52.068;5.188;2023-08-20T00:14:53;102107.0;;;20.2;92.09
68376;BME280;55318;52.068;5.188;2023-08-20T00:16:31;102111.0;;;20.02;93.02
68376;BME280;55318;52.068;5.188;2023-08-20T00:18:08;102113.0;;;19.91;93.93
68376;BME280;55318;52.068;5.188;2023-08-20T00:21:24;102112.0;;;19.8;94.45
68376;BME280;55318;52.068;5.188;2023-08-20T00:23:02;102114.0;;;19.71;95.32
68376;BME280;55318;52.068;5.188;2023-08-20T00:24:41;102111.0;;;19.64;95.72
68376;BME280;55318;52.068;5.188;2023-08-20T00:26:19;102115.0;;;19.75;95.37
68376;BME280;55318;52.068;5.188;2023-08-20T00:29:31;102117.0;;;19.72;95.84
68376;BME280;55318;52.068;5.188;2023-08-20T00:31:08;102121.0;;;19.75;96.35
68376;BME280;55318;52.068;5.188;2023-08-20T00:32:44;102125.0;;;19.8;96.52
68376;BME280;55318;52.068;5.188;2023-08-20T00:35:56;102131.0;;;19.78;96.46
68376;BME280;55318;52.068;5.188;2023-08-20T00:37:33;102130.0;;;19.7;97.05
68376;BME280;55318;52.068;5.188;2023-08-20T00:39:10;102136.0;;;19.68;97.24
68376;BME280;55318;52.068;5.188;2023-08-20T00:42:24;102141.0;;;19.66;97.41
68376;BME280;55318;52.068;5.188;2023-08-20T00:44:01;102145.0;;;19.78;97.4
68376;BME280;55318;52.068;5.188;2023-08-20T00:45:40;102142.0;;;19.82;96.98
68376;BME280;55318;52.068;5.188;2023-08-20T00:47:18;102141.0;;;19.77;97.14
68376;BME280;55318;52.068;5.188;2023-08-20T00:50:33;102143.0;;;19.73;97.54
68376;BME280;55318;52.068;5.188;2023-08-20T00:52:12;102142.0;;;19.66;97.29
68376;BME280;55318;52.068;5.188;2023-08-20T00:53:49;102146.0;;;19.64;97.86
68376;BME280;55318;52.068;5.188;2023-08-20T00:57:04;102146.0;;;19.59;98.28
68376;BME280;55318;52.068;5.188;2023-08-20T00:58:42;102143.0;;;19.56;97.54
68376;BME280;55318;52.068;5.188;2023-08-20T01:00:20;102147.0;;;19.52;97.89
68376;BME280;55318;52.068;5.188;2023-08-20T01:01:59;102159.0;;;19.46;97.81
68376;BME280;55318;52.068;5.188;2023-08-20T01:05:14;102157.0;;;19.45;97.73
68376;BME280;55318;52.068;5.188;2023-08-20T01:06:58;102156.0;;;19.43;98.29
68376;BME280;55318;52.068;5.188;2023-08-20T01:08:40;102164.0;;;19.38;97.99
68376;BME280;55318;52.068;5.188;2023-08-20T01:10:20;102168.0;;;19.43;98.0
68376;BME280;55318;52.068;5.188;2023-08-20T01:13:40;102172.0;;;19.41;98.38
68376;BME280;55318;52.068;5.188;2023-08-20T01:15:16;102174.0;;;19.45;98.76
68376;BME280;55318;52.068;5.188;2023-08-20T01:16:53;102177.0;;;19.38;98.92
68376;BME280;55318;52.068;5.188;2023-08-20T01:20:07;102183.0;;;19.34;98.8
68376;BME280;55318;52.068;5.188;2023-08-20T01:21:55;102188.0;;;19.34;99.39
68376;BME280;55318;52.068;5.188;2023-08-20T01:23:58;102187.0;;;19.31;99.19
68376;BME280;55318;52.068;5.188;2023-08-20T01:25:52;102187.0;;;19.3;99.31
68376;BME280;55318;52.068;5.188;2023-08-20T01:27:42;102182.0;;;19.36;99.49
68376;BME280;55318;52.068;5.188;2023-08-20T01:29:35;102180.0;;;19.37;98.57
68376;BME280;55318;52.068;5.188;2023-08-20T01:31:12;102171.0;;;19.34;98.59
68376;BME280;55318;52.068;5.188;2023-08-20T01:34:29;102168.0;;;19.31;97.54
68376;BME280;55318;52.068;5.188;2023-08-20T01:36:07;102176.0;;;19.27;98.03
68376;BME280;55318;52.068;5.188;2023-08-20T01:37:45;102177.0;;;19.3;97.91
68376;BME280;55318;52.068;5.188;2023-08-20T01:40:57;102174.0;;;19.23;97.74
68376;BME280;55318;52.068;5.188;2023-08-20T01:42:34;102180.0;;;19.27;98.7
68376;BME280;55318;52.068;5.188;2023-08-20T01:44:11;102181.0;;;19.18;98.6
68376;BME280;55318;52.068;5.188;2023-08-20T01:45:48;102189.0;;;19.18;98.82
68376;BME280;55318;52.068;5.188;2023-08-20T01:49:01;102194.0;;;19.13;98.72
68376;BME280;55318;52.068;5.188;2023-08-20T01:50:39;102191.0;;;19.09;99.0
68376;BME280;55318;52.068;5.188;2023-08-20T01:52:15;102192.0;;;19.03;99.4
68376;BME280;55318;52.068;5.188;2023-08-20T01:55:28;102200.0;;;19.0;99.29
68376;BME280;55318;52.068;5.188;2023-08-20T01:57:04;102202.0;;;19.0;99.59
68376;BME280;55318;52.068;5.188;2023-08-20T01:58:41;102197.0;;;19.0;99.92
68376;BME280;55318;52.068;5.188;2023-08-20T02:01:55;102196.0;;;18.95;99.96
68376;BME280;55318;52.068;5.188;2023-08-20T02:03:31;102199.0;;;18.95;100.0
68376;BME280;55318;52.068;5.188;2023-08-20T02:05:07;102193.0;;;18.95;100.0
68376;BME280;55318;52.068;5.188;2023-08-20T02:06:44;102197.0;;;18.97;100.0
68376;BME280;55318;52.068;5.188;2023-08-20T02:09:57;102189.0;;;18.95;100.0
68376;BME280;55318;52.068;5.188;2023-08-20T02:11:34;102184.0;;;19.0;99.64
68376;BME280;55318;52.068;5.188;2023-08-20T02:13:10;102190.0;;;18.93;99.96
68376;BME280;55318;52.068;5.188;2023-08-20T02:16:24;102192.0;;;18.91;99.48
68376;BME280;55318;52.068;5.188;2023-08-20T02:18:00;102191.0;;;18.88;100.0
68376;BME280;55318;52.068;5.188;2023-08-20T02:19:37;102195.0;;;18.82;99.77
68376;BME280;55318;52.068;5.188;2023-08-20T02:22:51;102187.0;;;18.71;99.79
68376;BME280;55318;52.068;5.188;2023-08-20T02:24:28;102180.0;;;18.68;99.88
68376;BME280;55318;52.068;5.188;2023-08-20T02:26:05;102176.0;;;18.64;100.0
68376;BME280;55318;52.068;5.188;2023-08-20T02:27:41;102175.0;;;18.61;99.72
68376;BME280;55318;52.068;5.188;2023-08-20T02:30:54;102178.0;;;18.68;98.7
68376;BME280;55318;52.068;5.188;2023-08-20T02:32:31;102177.0;;;18.59;99.46
68376;BME280;55318;52.068;5.188;2023-08-20T02:34:07;102172.0;;;18.47;99.69
68376;BME280;55318;52.068;5.188;2023-08-20T02:37:21;102171.0;;;18.48;99.5
68376;BME280;55318;52.068;5.188;2023-08-20T02:38:58;102165.0;;;18.48;99.79
68376;BME280;55318;52.068;5.188;2023-08-20T02:40:39;102166.0;;;18.52;99.31
68376;BME280;55318;52.068;5.188;2023-08-20T02:42:16;102166.0;;;18.45;99.42
68376;BME280;55318;52.068;5.188;2023-08-20T02:45:29;102170.0;;;18.63;98.69
68376;BME280;55318;52.068;5.188;2023-08-20T02:47:05;102164.0;;;18.77;97.88
68376;BME280;55318;52.068;5.188;2023-08-20T02:48:42;102167.0;;;18.79;98.14
68376;BME280;55318;52.068;5.188;2023-08-20T02:51:55;102164.0;;;18.78;98.44
68376;BME280;55318;52.068;5.188;2023-08-20T02:53:32;102164.0;;;18.84;98.33
68376;BME280;55318;52.068;5.188;2023-08-20T02:55:09;102166.0;;;18.86;98.14
68376;BME280;55318;52.068;5.188;2023-08-20T02:58:24;102170.0;;;18.75;98.5
68376;BME280;55318;52.068;5.188;2023-08-20T03:00:01;102172.0;;;18.61;98.53
68376;BME280;55318;52.068;5.188;2023-08-20T03:01:38;102176.0;;;18.57;98.76
68376;BME280;55318;52.068;5.188;2023-08-20T03:03:15;102170.0;;;18.63;98.41
68376;BME280;55318;52.068;5.188;2023-08-20T03:06:28;102172.0;;;18.68;98.42
68376;BME280;55318;52.068;5.188;2023-08-20T03:08:06;102172.0;;;18.66;98.38
68376;BME280;55318;52.068;5.188;2023-08-20T03:09:42;102169.0;;;18.56;98.56
68376;BME280;55318;52.068;5.188;2023-08-20T03:12:55;102168.0;;;18.45;98.91
68376;BME280;55318;52.068;5.188;2023-08-20T03:14:32;102171.0;;;18.29;98.94
68376;BME280;55318;52.068;5.188;2023-08-20T03:16:09;102170.0;;;18.16;99.44
68376;BME280;55318;52.068;5.188;2023-08-20T03:19:21;102175.0;;;18.07;99.88
68376;BME280;55318;52.068;5.188;2023-08-20T03:20:58;102168.0;;;18.06;100.0
68376;BME280;55318;52.068;5.188;2023-08-20T03:22:36;102162.0;;;18.03;100.0
68376;BME280;55318;52.068;5.188;2023-08-20T03:24:14;102167.0;;;18.02;100.0
68376;BME280;55318;52.068;5.188;2023-08-20T03:27:27;102174.0;;;18.02;100.0
68376;BME280;55318;52.068;5.188;2023-08-20T03:29:04;102173.0;;;18.05;100.0
68376;BME280;55318;52.068;5.188;2023-08-20T03:30:41;102176.0;;;18.04;100.0
68376;BME280;55318;52.068;5.188;2023-08-20T03:33:54;102173.0;;;18.12;100.0
68376;BME280;55318;52.068;5.188;2023-08-20T03:35:31;102177.0;;;18.25;100.0
68376;BME280;55318;52.068;5.188;2023-08-20T03:37:07;102185.0;;;18.25;100.0
68376;BME280;55318;52.068;5.188;2023-08-20T03:38:43;102185.0;;;18.3;100.0
68376;BME280;55318;52.068;5.188;2023-08-20T03:41:56;102188.0;;;18.25;100.0
68376;BME280;55318;52.068;5.188;2023-08-20T03:43:33;102195.0;;;18.2;100.0
68376;BME280;55318;52.068;5.188;2023-08-20T03:45:10;102200.0;;;18.18;100.0
68376;BME280;55318;52.068;5.188;2023-08-20T03:48:23;102202.0;;;18.18;100.0
68376;BME280;55318;52.068;5.188;2023-08-20T03:50:00;102199.0;;;18.18;100.0
68376;BME280;55318;52.068;5.188;2023-08-20T03:51:36;102195.0;;;18.21;100.0
68376;BME280;55318;52.068;5.188;2023-08-20T03:54:50;102201.0;;;18.18;100.0
68376;BME280;55318;52.068;5.188;2023-08-20T03:56:27;102198.0;;;18.14;100.0
68376;BME280;55318;52.068;5.188;2023-08-20T03:58:03;102205.0;;;18.11;100.0
68376;BME280;55318;52.068;5.188;2023-08-20T03:59:40;102201.0;;;18.06;100.0
68376;BME280;55318;52.068;5.188;2023-08-20T04:02:53;102198.0;;;18.04;100.0
68376;BME280;55318;52.068;5.188;2023-08-20T04:04:30;102206.0;;;18.03;100.0
68376;BME280;55318;52.068;5.188;2023-08-20T04:06:07;102208.0;;;18.04;100.0
68376;BME280;55318;52.068;5.188;2023-08-20T04:09:20;102212.0;;;18.02;100.0
68376;BME280;55318;52.068;5.188;2023-08-20T04:10:56;102209.0;;;17.98;100.0
68376;BME280;55318;52.068;5.188;2023-08-20T04:12:33;102206.0;;;17.93;100.0
68376;BME280;55318;52.068;5.188;2023-08-20T04:15:46;102207.0;;;17.89;100.0
68376;BME280;55318;52.068;5.188;2023-08-20T04:17:23;102205.0;;;17.86;100.0
68376;BME280;55318;52.068;5.188;2023-08-20T04:19:00;102207.0;;;17.82;100.0
68376;BME280;55318;52.068;5.188;2023-08-20T04:20:37;102212.0;;;17.78;100.0
68376;BME280;55318;52.068;5.188;2023-08-20T04:23:50;102213.0;;;17.75;100.0
68376;BME280;55318;52.068;5.188;2023-08-20T04:25:26;102215.0;;;17.68;100.0
68376;BME280;55318;52.068;5.188;2023-08-20T04:27:03;102220.0;;;17.64;100.0
68376;BME280;55318;52.068;5.188;2023-08-20T04:30:16;102218.0;;;17.61;100.0
68376;BME280;55318;52.068;5.188;2023-08-20T04:31:53;102214.0;;;17.54;100.0
68376;BME280;55318;52.068;5.188;2023-08-20T04:33:29;102224.0;;;17.52;100.0
68376;BME280;55318;52.068;5.188;2023-08-20T04:36:43;102228.0;;;17.5;100.0
68376;BME280;55318;52.068;5.188;2023-08-20T04:38:20;102227.0;;;17.47;100.0
68376;BME280;55318;52.068;5.188;2023-08-20T04:39:56;102228.0;;;17.45;100.0
68376;BME280;55318;52.068;5.188;2023-08-20T04:41:34;102223.0;;;17.41;100.0
68376;BME280;55318;52.068;5.188;2023-08-20T04:44:47;102224.0;;;17.43;100.0
68376;BME280;55318;52.068;5.188;2023-08-20T04:46:23;102232.0;;;17.37;100.0
68376;BME280;55318;52.068;5.188;2023-08-20T04:48:01;102239.0;;;17.38;100.0
68376;BME280;55318;52.068;5.188;2023-08-20T04:51:14;102245.0;;;17.36;100.0
68376;BME280;55318;52.068;5.188;2023-08-20T04:52:50;102249.0;;;17.36;100.0
68376;BME280;55318;52.068;5.188;2023-08-20T04:54:27;102248.0;;;17.34;100.0
68376;BME280;55318;52.068;5.188;2023-08-20T04:57:41;102245.0;;;17.34;100.0
68376;BME280;55318;52.068;5.188;2023-08-20T04:59:18;102245.0;;;17.32;100.0
68376;BME280;55318;52.068;5.188;2023-08-20T05:00:54;102247.0;;;17.31;100.0
68376;BME280;55318;52.068;5.188;2023-08-20T05:02:31;102240.0;;;17.27;100.0
68376;BME280;55318;52.068;5.188;2023-08-20T05:05:48;102240.0;;;17.25;100.0
68376;BME280;55318;52.068;5.188;2023-08-20T05:07:25;102242.0;;;17.28;100.0
68376;BME280;55318;52.068;5.188;2023-08-20T05:09:01;102245.0;;;17.27;100.0
68376;BME280;55318;52.068;5.188;2023-08-20T05:12:15;102247.0;;;17.25;100.0
68376;BME280;55318;52.068;5.188;2023-08-20T05:13:55;102247.0;;;17.21;100.0
68376;BME280;55318;52.068;5.188;2023-08-20T05:15:31;102245.0;;;17.25;100.0
68376;BME280;55318;52.068;5.188;2023-08-20T05:17:08;102245.0;;;17.22;100.0
68376;BME280;55318;52.068;5.188;2023-08-20T05:20:22;102252.0;;;17.25;100.0
68376;BME280;55318;52.068;5.188;2023-08-20T05:21:59;102255.0;;;17.25;100.0
68376;BME280;55318;52.068;5.188;2023-08-20T05:23:35;102252.0;;;17.32;100.0
68376;BME280;55318;52.068;5.188;2023-08-20T05:27:03;102256.0;;;17.37;100.0
68376;BME280;55318;52.068;5.188;2023-08-20T05:28:40;102246.0;;;17.43;100.0
68376;BME280;55318;52.068;5.188;2023-08-20T05:30:17;102249.0;;;17.47;100.0
68376;BME280;55318;52.068;5.188;2023-08-20T05:31:53;102250.0;;;17.53;100.0
68376;BME280;55318;52.068;5.188;2023-08-20T05:35:07;102252.0;;;17.61;100.0
68376;BME280;55318;52.068;5.188;2023-08-20T05:36:44;102251.0;;;17.68;100.0
68376;BME280;55318;52.068;5.188;2023-08-20T05:38:22;102256.0;;;17.7;100.0
68376;BME280;55318;52.068;5.188;2023-08-20T05:41:35;102257.0;;;17.81;100.0
68376;BME280;55318;52.068;5.188;2023-08-20T05:43:11;102255.0;;;18.0;100.0
68376;BME280;55318;52.068;5.188;2023-08-20T05:44:48;102256.0;;;18.16;100.0
68376;BME280;55318;52.068;5.188;2023-08-20T05:46:24;102259.0;;;18.27;100.0
68376;BME280;55318;52.068;5.188;2023-08-20T05:49:37;102263.0;;;18.45;100.0
68376;BME280;55318;52.068;5.188;2023-08-20T05:51:14;102262.0;;;18.52;100.0
68376;BME280;55318;52.068;5.188;2023-08-20T05:52:50;102263.0;;;18.66;100.0
68376;BME280;55318;52.068;5.188;2023-08-20T05:56:04;102262.0;;;18.78;100.0
68376;BME280;55318;52.068;5.188;2023-08-20T05:57:41;102261.0;;;18.96;100.0
68376;BME280;55318;52.068;5.188;2023-08-20T05:59:18;102258.0;;;19.04;100.0
68376;BME280;55318;52.068;5.188;2023-08-20T06:02:31;102255.0;;;19.21;99.19
68376;BME280;55318;52.068;5.188;2023-08-20T06:04:08;102253.0;;;19.32;98.47
68376;BME280;55318;52.068;5.188;2023-08-20T06:05:45;102256.0;;;19.41;98.01
68376;BME280;55318;52.068;5.188;2023-08-20T06:07:22;102250.0;;;19.47;97.81
68376;BME280;55318;52.068;5.188;2023-08-20T06:10:36;102253.0;;;19.61;97.28
68376;BME280;55318;52.068;5.188;2023-08-20T06:12:13;102253.0;;;19.72;96.83
68376;BME280;55318;52.068;5.188;2023-08-20T06:13:50;102261.0;;;19.89;96.4
68376;BME280;55318;52.068;5.188;2023-08-20T06:17:04;102259.0;;;20.0;95.73
68376;BME280;55318;52.068;5.188;2023-08-20T06:18:41;102253.0;;;20.2;95.66
68376;BME280;55318;52.068;5.188;2023-08-20T06:20:17;102255.0;;;20.39;94.85
68376;BME280;55318;52.068;5.188;2023-08-20T06:23:31;102255.0;;;20.53;93.5
68376;BME280;55318;52.068;5.188;2023-08-20T06:25:07;102252.0;;;20.71;92.26
68376;BME280;55318;52.068;5.188;2023-08-20T06:26:44;102259.0;;;20.9;91.96
68376;BME280;55318;52.068;5.188;2023-08-20T06:28:21;102259.0;;;21.1;91.03
68376;BME280;55318;52.068;5.188;2023-08-20T06:31:34;102260.0;;;21.33;90.17
68376;BME280;55318;52.068;5.188;2023-08-20T06:33:11;102256.0;;;21.56;88.98
68376;BME280;55318;52.068;5.188;2023-08-20T06:34:48;102259.0;;;21.75;87.23
68376;BME280;55318;52.068;5.188;2023-08-20T06:38:02;102259.0;;;21.98;86.13
68376;BME280;55318;52.068;5.188;2023-08-20T06:39:39;102255.0;;;22.15;84.78
68376;BME280;55318;52.068;5.188;2023-08-20T06:41:17;102256.0;;;22.33;84.15
68376;BME280;55318;52.068;5.188;2023-08-20T06:42:53;102251.0;;;22.45;83.48
68376;BME280;55318;52.068;5.188;2023-08-20T06:46:07;102255.0;;;22.72;81.61
68376;BME280;55318;52.068;5.188;2023-08-20T06:47:44;102256.0;;;22.88;80.33
68376;BME280;55318;52.068;5.188;2023-08-20T06:49:21;102260.0;;;22.96;79.87
68376;BME280;55318;52.068;5.188;2023-08-20T06:52:33;102259.0;;;23.13;79.77
68376;BME280;55318;52.068;5.188;2023-08-20T06:54:09;102265.0;;;23.15;79.02
68376;BME280;55318;52.068;5.188;2023-08-20T06:55:45;102264.0;;;23.3;78.69
68376;BME280;55318;52.068;5.188;2023-08-20T06:58:59;102264.0;;;23.42;79.0
68376;BME280;55318;52.068;5.188;2023-08-20T07:00:37;102266.0;;;23.49;78.27
68376;BME280;55318;52.068;5.188;2023-08-20T07:02:14;102262.0;;;23.58;77.59
68376;BME280;55318;52.068;5.188;2023-08-20T07:03:51;102258.0;;;23.84;77.14
68376;BME280;55318;52.068;5.188;2023-08-20T07:07:04;102266.0;;;23.97;76.62
68376;BME280;55318;52.068;5.188;2023-08-20T07:08:40;102260.0;;;24.19;75.94
68376;BME280;55318;52.068;5.188;2023-08-20T07:10:18;102261.0;;;24.38;74.05
68376;BME280;55318;52.068;5.188;2023-08-20T07:13:31;102263.0;;;24.55;76.03
68376;BME280;55318;52.068;5.188;2023-08-20T07:15:09;102268.0;;;24.74;72.62
68376;BME280;55318;52.068;5.188;2023-08-20T07:16:45;102273.0;;;24.91;70.98
68376;BME280;55318;52.068;5.188;2023-08-20T07:19:58;102274.0;;;25.01;72.12
68376;BME280;55318;52.068;5.188;2023-08-20T07:21:35;102275.0;;;25.28;72.44
68376;BME280;55318;52.068;5.188;2023-08-20T07:23:13;102283.0;;;25.5;69.39
68376;BME280;55318;52.068;5.188;2023-08-20T07:24:49;102280.0;;;25.65;69.31
68376;BME280;55318;52.068;5.188;2023-08-20T07:28:03;102277.0;;;25.82;69.41
68376;BME280;55318;52.068;5.188;2023-08-20T07:29:41;102278.0;;;25.88;69.5
68376;BME280;55318;52.068;5.188;2023-08-20T07:31:17;102280.0;;;25.99;67.91
68376;BME280;55318;52.068;5.188;2023-08-20T07:34:31;102282.0;;;26.2;69.77
68376;BME280;55318;52.068;5.188;2023-08-20T07:36:09;102284.0;;;26.37;66.14
68376;BME280;55318;52.068;5.188;2023-08-20T07:37:46;102285.0;;;26.38;65.66
68376;BME280;55318;52.068;5.188;2023-08-20T07:39:23;102289.0;;;26.54;66.33
68376;BME280;55318;52.068;5.188;2023-08-20T07:42:37;102289.0;;;26.61;64.44
68376;BME280;55318;52.068;5.188;2023-08-20T07:44:14;102295.0;;;26.84;68.05
68376;BME280;55318;52.068;5.188;2023-08-20T07:45:51;102297.0;;;26.97;64.62
68376;BME280;55318;52.068;5.188;2023-08-20T07:49:04;102299.0;;;27.16;65.17
68376;BME280;55318;52.068;5.188;2023-08-20T07:50:41;102297.0;;;27.23;64.06
68376;BME280;55318;52.068;5.188;2023-08-20T07:52:18;102303.0;;;27.16;63.28
68376;BME280;55318;52.068;5.188;2023-08-20T07:55:32;102307.0;;;27.25;62.88
68376;BME280;55318;52.068;5.188;2023-08-20T07:57:09;102305.0;;;27.14;61.86
68376;BME280;55318;52.068;5.188;2023-08-20T07:58:46;102300.0;;;27.38;61.48
68376;BME280;55318;52.068;5.188;2023-08-20T08:00:23;102303.0;;;27.39;61.42
68376;BME280;55318;52.068;5.188;2023-08-20T08:03:36;102302.0;;;27.36;62.37
68376;BME280;55318;52.068;5.188;2023-08-20T08:05:14;102308.0;;;27.51;61.57
68376;BME280;55318;52.068;5.188;2023-08-20T08:06:51;102309.0;;;27.68;57.83
68376;BME280;55318;52.068;5.188;2023-08-20T08:10:05;102309.0;;;27.63;62.38
68376;BME280;55318;52.068;5.188;2023-08-20T08:11:43;102315.0;;;27.82;64.55
68376;BME280;55318;52.068;5.188;2023-08-20T08:13:21;102317.0;;;28.0;60.28
68376;BME280;55318;52.068;5.188;2023-08-20T08:14:59;102322.0;;;27.98;59.01
68376;BME280;55318;52.068;5.188;2023-08-20T08:18:12;102320.0;;;28.1;60.37
68376;BME280;55318;52.068;5.188;2023-08-20T08:19:49;102322.0;;;28.2;60.3
68376;BME280;55318;52.068;5.188;2023-08-20T08:21:26;102322.0;;;28.08;60.45
68376;BME280;55318;52.068;5.188;2023-08-20T08:24:40;102323.0;;;28.07;59.79
68376;BME280;55318;52.068;5.188;2023-08-20T08:26:17;102324.0;;;28.16;58.55
68376;BME280;55318;52.068;5.188;2023-08-20T08:27:54;102327.0;;;28.2;60.11
68376;BME280;55318;52.068;5.188;2023-08-20T08:31:08;102330.0;;;27.96;63.57
68376;BME280;55318;52.068;5.188;2023-08-20T08:32:44;102327.0;;;28.0;60.06
68376;BME280;55318;52.068;5.188;2023-08-20T08:34:21;102336.0;;;27.99;61.24
68376;BME280;55318;52.068;5.188;2023-08-20T08:35:58;102336.0;;;27.98;61.11
68376;BME280;55318;52.068;5.188;2023-08-20T08:39:12;102334.0;;;27.92;59.64
68376;BME280;55318;52.068;5.188;2023-08-20T08:40:49;102333.0;;;28.02;59.66
68376;BME280;55318;52.068;5.188;2023-08-20T08:42:27;102332.0;;;27.88;58.91
68376;BME280;55318;52.068;5.188;2023-08-20T08:45:46;102334.0;;;27.94;64.25
68376;BME280;55318;52.068;5.188;2023-08-20T08:47:23;102339.0;;;28.03;62.3
68376;BME280;55318;52.068;5.188;2023-08-20T08:49:02;102332.0;;;27.89;59.37
68376;BME280;55318;52.068;5.188;2023-08-20T08:50:39;102338.0;;;28.04;60.95
68376;BME280;55318;52.068;5.188;2023-08-20T08:53:55;102334.0;;;27.9;62.23
68376;BME280;55318;52.068;5.188;2023-08-20T08:55:32;102337.0;;;28.0;58.95
68376;BME280;55318;52.068;5.188;2023-08-20T08:57:09;102336.0;;;27.82;58.22
68376;BME280;55318;52.068;5.188;2023-08-20T09:00:24;102333.0;;;27.88;60.54
68376;BME280;55318;52.068;5.188;2023-08-20T09:02:00;102333.0;;;27.95;60.28
68376;BME280;55318;52.068;5.188;2023-08-20T09:03:37;102333.0;;;28.1;62.52
68376;BME280;55318;52.068;5.188;2023-08-20T09:05:15;102337.0;;;28.03;59.84
68376;BME280;55318;52.068;5.188;2023-08-20T09:08:32;102332.0;;;28.15;62.1
68376;BME280;55318;52.068;5.188;2023-08-20T09:10:08;102338.0;;;28.15;60.74
68376;BME280;55318;52.068;5.188;2023-08-20T09:11:45;102341.0;;;28.08;61.88
68376;BME280;55318;52.068;5.188;2023-08-20T09:15:00;102334.0;;;28.11;59.2
68376;BME280;55318;52.068;5.188;2023-08-20T09:16:37;102335.0;;;28.16;59.29
68376;BME280;55318;52.068;5.188;2023-08-20T09:18:14;102337.0;;;28.06;58.76
68376;BME280;55318;52.068;5.188;2023-08-20T09:19:54;102341.0;;;28.24;57.43
68376;BME280;55318;52.068;5.188;2023-08-20T09:23:11;102343.0;;;28.15;57.12
68376;BME280;55318;52.068;5.188;2023-08-20T09:24:52;102341.0;;;28.24;58.85
68376;BME280;55318;52.068;5.188;2023-08-20T09:26:30;102343.0;;;28.32;57.78
68376;BME280;55318;52.068;5.188;2023-08-20T09:28:08;102344.0;;;28.54;56.72
68376;BME280;55318;52.068;5.188;2023-08-20T09:31:37;102340.0;;;28.68;61.1
68376;BME280;55318;52.068;5.188;2023-08-20T09:33:16;102341.0;;;28.68;54.96
68376;BME280;55318;52.068;5.188;2023-08-20T09:34:55;102346.0;;;28.55;54.94
68376;BME280;55318;52.068;5.188;2023-08-20T09:36:33;102342.0;;;28.52;53.12
68376;BME280;55318;52.068;5.188;2023-08-20T09:39:48;102343.0;;;28.59;55.62
68376;BME280;55318;52.068;5.188;2023-08-20T09:41:25;102341.0;;;28.63;56.57
68376;BME280;55318;52.068;5.188;2023-08-20T09:43:02;102337.0;;;28.72;59.38
68376;BME280;55318;52.068;5.188;2023-08-20T09:46:21;102338.0;;;28.77;56.73
68376;BME280;55318;52.068;5.188;2023-08-20T09:48:02;102339.0;;;28.83;57.26
68376;BME280;55318;52.068;5.188;2023-08-20T09:49:47;102337.0;;;28.79;54.35
68376;BME280;55318;52.068;5.188;2023-08-20T09:51:26;102337.0;;;28.74;55.41
68376;BME280;55318;52.068;5.188;2023-08-20T09:54:53;102341.0;;;28.82;55.08
68376;BME280;55318;52.068;5.188;2023-08-20T09:56:39;102340.0;;;28.76;52.07
68376;BME280;55318;52.068;5.188;2023-08-20T09:58:15;102338.0;;;28.83;54.24
68376;BME280;55318;52.068;5.188;2023-08-20T09:59:53;102339.0;;;28.91;56.17
68376;BME280;55318;52.068;5.188;2023-08-20T10:03:09;102338.0;;;28.96;55.25
68376;BME280;55318;52.068;5.188;2023-08-20T10:04:47;102341.0;;;29.13;54.44
68376;BME280;55318;52.068;5.188;2023-08-20T10:06:26;102343.0;;;29.16;55.67
68376;BME280;55318;52.068;5.188;2023-08-20T10:08:07;102349.0;;;29.01;53.27
68376;BME280;55318;52.068;5.188;2023-08-20T10:11:22;102355.0;;;29.07;50.75
68376;BME280;55318;52.068;5.188;2023-08-20T10:13:00;102356.0;;;29.03;51.63
68376;BME280;55318;52.068;5.188;2023-08-20T10:14:36;102355.0;;;29.05;50.62
68376;BME280;55318;52.068;5.188;2023-08-20T10:16:17;102353.0;;;29.12;53.49
68376;BME280;55318;52.068;5.188;2023-08-20T10:19:30;102356.0;;;29.18;54.2
68376;BME280;55318;52.068;5.188;2023-08-20T10:21:06;102350.0;;;29.17;53.38
68376;BME280;55318;52.068;5.188;2023-08-20T10:22:45;102346.0;;;29.31;52.74
68376;BME280;55318;52.068;5.188;2023-08-20T10:26:07;102352.0;;;29.22;53.88
68376;BME280;55318;52.068;5.188;2023-08-20T10:27:44;102350.0;;;29.14;50.66
68376;BME280;55318;52.068;5.188;2023-08-20T10:29:38;102348.0;;;29.07;50.6
68376;BME280;55318;52.068;5.188;2023-08-20T10:31:16;102345.0;;;29.12;52.4
68376;BME280;55318;52.068;5.188;2023-08-20T10:34:33;102341.0;;;29.18;50.51
68376;BME280;55318;52.068;5.188;2023-08-20T10:36:15;102341.0;;;29.21;50.91
68376;BME280;55318;52.068;5.188;2023-08-20T10:38:11;102342.0;;;29.29;51.14
68376;BME280;55318;52.068;5.188;2023-08-20T10:39:54;102343.0;;;29.21;51.52
68376;BME280;55318;52.068;5.188;2023-08-20T10:41:30;102348.0;;;29.12;52.0
68376;BME280;55318;52.068;5.188;2023-08-20T10:44:59;102343.0;;;29.05;52.65
68376;BME280;55318;52.068;5.188;2023-08-20T10:46:49;102343.0;;;29.11;51.85
68376;BME280;55318;52.068;5.188;2023-08-20T10:48:26;102345.0;;;29.37;52.74
68376;BME280;55318;52.068;5.188;2023-08-20T10:50:04;102341.0;;;29.3;51.19
68376;BME280;55318;52.068;5.188;2023-08-20T10:53:21;102344.0;;;29.35;52.96
68376;BME280;55318;52.068;5.188;2023-08-20T10:54:58;102346.0;;;29.45;52.86
68376;BME280;55318;52.068;5.188;2023-08-20T10:56:44;102344.0;;;29.55;50.95
68376;BME280;55318;52.068;5.188;2023-08-20T10:58:23;102341.0;;;29.29;46.89
68376;BME280;55318;52.068;5.188;2023-08-20T11:01:43;102343.0;;;29.42;48.48
68376;BME280;55318;52.068;5.188;2023-08-20T11:03:21;102343.0;;;29.44;53.11
68376;BME280;55318;52.068;5.188;2023-08-20T11:04:58;102349.0;;;29.6;49.84